Time;durP1;ratioP1;P1;durP2;ratioP2;P2;SDS_P1;SDS_P2;PMS_P1;PMS_P2;Temp;Humidity;BMP_temperature;BMP_pressure;BME280_temperature;BME280_humidity;BME280_pressure;Samples;Min_cycle;Max_cycle;Signal;HPM_P1;HPM_P2
2021/07/24 00:01:43;;;;;;;20.55;12.43;;;;;;;17.96;83.03;100731.31;5006587;28;20022;-84
2021/07/24 00:04:10;;;;;;;20.75;11.90;;;;;;;18.10;83.12;100749.19;5017794;28;20026;-82
2021/07/24 00:06:36;;;;;;;21.73;11.65;;;;;;;18.09;83.35;100757.56;5032329;28;20029;-83
2021/07/24 00:09:04;;;;;;;25.95;13.40;;;;;;;18.02;83.35;100750.31;5019054;28;20034;-82
2021/07/24 00:11:32;;;;;;;23.98;12.93;;;;;;;18.06;83.69;100752.56;5009188;28;20045;-83
2021/07/24 00:13:58;;;;;;;23.20;13.05;;;;;;;17.97;83.94;100743.88;5008177;28;20044;-83
2021/07/24 00:16:23;;;;;;;27.00;13.25;;;;;;;17.93;83.68;100743.47;4992628;28;20120;-83
2021/07/24 00:18:49;;;;;;;25.42;13.80;;;;;;;17.83;83.79;100732.28;5009682;28;20477;-83
2021/07/24 00:21:14;;;;;;;23.13;13.00;;;;;;;17.84;84.22;100744.03;5003800;28;20057;-83
2021/07/24 00:23:40;;;;;;;26.13;14.20;;;;;;;17.83;84.33;100740.44;5024950;28;20030;-83
2021/07/24 00:26:05;;;;;;;27.42;13.90;;;;;;;17.78;84.32;100743.81;5009393;28;20140;-83
2021/07/24 00:28:31;;;;;;;25.63;14.60;;;;;;;17.80;84.24;100725.41;5009771;28;20881;-83
2021/07/24 00:30:56;;;;;;;27.20;14.50;;;;;;;17.83;84.53;100740.44;5009257;28;20084;-83
2021/07/24 00:33:22;;;;;;;24.77;14.05;;;;;;;17.79;84.33;100740.06;5007528;28;20061;-83
2021/07/24 00:35:47;;;;;;;24.08;13.32;;;;;;;17.80;84.13;100730.84;4992255;28;20026;-83
2021/07/24 00:38:13;;;;;;;22.23;13.35;;;;;;;17.71;84.78;100729.44;5008206;28;20022;-82
2021/07/24 00:40:43;;;;;;;29.13;14.75;;;;;;;17.72;84.96;100733.00;5008465;28;20021;-83
2021/07/24 00:43:09;;;;;;;30.73;15.50;;;;;;;17.74;84.62;100734.44;5009303;28;20072;-83
2021/07/24 00:45:44;;;;;;;24.83;14.63;;;;;;;17.74;84.48;100722.72;4990888;28;20040;-83
2021/07/24 00:48:10;;;;;;;24.83;14.60;;;;;;;17.61;84.62;100722.84;5006846;28;20029;-83
2021/07/24 00:50:36;;;;;;;24.65;14.00;;;;;;;17.63;84.56;100718.03;4993589;28;20029;-83
2021/07/24 00:53:10;;;;;;;30.42;15.57;;;;;;;17.62;84.37;100716.34;5008192;28;20038;-82
2021/07/24 00:55:36;;;;;;;26.00;15.07;;;;;;;17.58;84.62;100716.81;5012388;28;20686;-83
2021/07/24 00:58:21;;;;;;;30.98;15.40;;;;;;;17.56;84.61;100712.66;5008448;28;20030;-83
2021/07/24 01:00:46;;;;;;;31.27;15.85;;;;;;;17.62;84.65;100719.06;5025256;28;20100;-83
2021/07/24 01:03:11;;;;;;;30.27;16.00;;;;;;;17.51;85.06;100713.31;5018202;28;20021;-83
2021/07/24 01:05:37;;;;;;;32.83;15.45;;;;;;;17.42;85.05;100702.97;5017167;28;20041;-83
2021/07/24 01:08:03;;;;;;;33.97;15.77;;;;;;;17.50;85.23;100710.81;5008775;28;21824;-83
2021/07/24 01:10:29;;;;;;;28.70;16.05;;;;;;;17.39;85.19;100704.22;5009888;28;20049;-83
2021/07/24 01:12:54;;;;;;;31.35;16.30;;;;;;;17.40;85.63;100695.00;5018232;28;20477;-83
2021/07/24 01:15:19;;;;;;;34.17;17.55;;;;;;;17.39;86.10;100700.69;5012703;28;20495;-83
2021/07/24 01:17:45;;;;;;;35.42;16.77;;;;;;;17.40;85.80;100703.16;5007088;28;20539;-83
2021/07/24 01:20:11;;;;;;;30.58;17.02;;;;;;;17.41;86.14;100691.25;5007477;28;20041;-83
2021/07/24 01:22:36;;;;;;;32.72;16.42;;;;;;;17.49;86.03;100692.84;4997260;28;20125;-83
2021/07/24 01:25:02;;;;;;;36.25;18.25;;;;;;;17.46;85.91;100687.84;5012692;28;20112;-83
2021/07/24 01:27:27;;;;;;;30.55;17.52;;;;;;;17.39;86.06;100679.78;5014592;28;20407;-83
2021/07/24 01:29:53;;;;;;;30.98;16.60;;;;;;;17.39;86.21;100677.06;5011232;28;20025;-83
2021/07/24 01:32:18;;;;;;;34.17;17.58;;;;;;;17.40;86.33;100686.84;5010402;28;20048;-83
2021/07/24 01:34:45;;;;;;;41.35;18.60;;;;;;;17.36;86.32;100680.22;5008460;28;20809;-84
2021/07/24 01:37:10;;;;;;;32.88;17.60;;;;;;;17.44;86.46;100684.50;5014216;28;20444;-83
2021/07/24 01:39:36;;;;;;;36.15;17.35;;;;;;;17.45;86.59;100678.03;5025567;28;20117;-83
2021/07/24 01:42:01;;;;;;;37.72;18.02;;;;;;;17.45;86.23;100673.44;5029840;28;20034;-83
2021/07/24 01:44:26;;;;;;;41.28;19.95;;;;;;;17.44;86.38;100662.78;5027526;28;20122;-83
2021/07/24 01:46:52;;;;;;;37.47;18.73;;;;;;;17.45;86.36;100667.16;5009652;28;20105;-84
2021/07/24 01:55:03;;;;;;;42.38;19.42;;;;;;;17.31;87.04;100669.19;5025511;28;20033;-83
2021/07/24 01:57:30;;;;;;;45.22;20.95;;;;;;;17.26;87.23;100660.88;5009981;28;20025;-83
2021/07/24 01:59:59;;;;;;;44.50;21.42;;;;;;;17.23;87.39;100661.31;5006495;28;20048;-83
2021/07/24 02:02:26;;;;;;;50.88;21.75;;;;;;;17.22;87.65;100655.03;5007872;28;20040;-83
2021/07/24 02:04:51;;;;;;;44.05;21.35;;;;;;;17.21;87.50;100647.09;5027709;28;20025;-83
2021/07/24 02:07:20;;;;;;;43.28;22.25;;;;;;;17.27;87.82;100659.78;5024381;28;20041;-83
2021/07/24 02:09:46;;;;;;;44.28;23.20;;;;;;;17.27;87.68;100660.63;5025732;28;20032;-83
2021/07/24 02:12:11;;;;;;;49.10;22.70;;;;;;;17.23;87.50;100639.56;5021403;28;20085;-82
2021/07/24 02:14:38;;;;;;;42.97;20.73;;;;;;;17.28;87.54;100645.16;5022989;28;20010;-83
2021/07/24 02:17:04;;;;;;;44.28;22.02;;;;;;;17.04;87.51;100609.63;5024608;28;20026;-82
2021/07/24 02:19:30;;;;;;;42.13;22.20;;;;;;;17.30;87.17;100645.75;5027741;28;20049;-83
2021/07/24 02:21:56;;;;;;;52.33;23.77;;;;;;;17.26;87.50;100655.44;5025168;28;20029;-83
2021/07/24 02:24:22;;;;;;;46.33;21.77;;;;;;;17.21;87.60;100647.09;5014659;28;20128;-84
2021/07/24 02:26:47;;;;;;;47.63;21.83;;;;;;;17.20;87.75;100653.56;5020360;28;20044;-83
2021/07/24 02:29:12;;;;;;;44.47;21.98;;;;;;;17.06;88.07;100623.81;5025222;28;20035;-82
2021/07/24 02:31:38;;;;;;;48.40;22.13;;;;;;;17.21;87.92;100644.41;5023945;28;20026;-83
2021/07/24 02:34:03;;;;;;;47.00;22.77;;;;;;;17.09;88.03;100639.69;5023270;28;20060;-83
2021/07/24 02:36:29;;;;;;;54.85;24.25;;;;;;;17.18;87.90;100640.22;5007308;28;20042;-84
2021/07/24 02:38:54;;;;;;;43.13;22.40;;;;;;;17.28;87.61;100651.44;5014415;28;20038;-82
2021/07/24 02:41:19;;;;;;;49.45;22.35;;;;;;;17.23;87.67;100634.13;5010764;28;20021;-83
2021/07/24 02:43:45;;;;;;;49.72;23.00;;;;;;;17.29;87.84;100633.25;5012806;28;20026;-81
2021/07/24 02:46:10;;;;;;;47.08;22.45;;;;;;;17.35;87.71;100635.06;4996211;28;20030;-84
2021/07/24 02:48:36;;;;;;;49.13;22.20;;;;;;;17.35;87.65;100627.72;4994404;28;20393;-82
2021/07/24 02:51:01;;;;;;;50.67;23.48;;;;;;;17.42;87.42;100629.56;5012915;28;20030;-84
2021/07/24 02:53:27;;;;;;;48.42;23.05;;;;;;;17.41;87.50;100625.16;5014785;28;20033;-84
2021/07/24 02:55:52;;;;;;;52.25;24.05;;;;;;;17.33;87.39;100615.41;5012424;28;20036;-82
2021/07/24 02:58:18;;;;;;;51.15;24.33;;;;;;;17.37;87.15;100619.38;4996579;28;20041;-83
2021/07/24 03:00:43;;;;;;;48.42;21.67;;;;;;;17.36;87.48;100620.44;5012265;28;20029;-84
2021/07/24 03:03:09;;;;;;;53.13;23.60;;;;;;;17.32;87.24;100619.19;5013153;28;21518;-81
2021/07/24 03:05:34;;;;;;;47.53;21.65;;;;;;;17.26;87.54;100611.94;4997878;28;20481;-84
2021/07/24 03:08:00;;;;;;;49.88;21.35;;;;;;;17.27;87.46;100608.16;5010908;28;20029;-80
2021/07/24 03:10:25;;;;;;;44.05;22.02;;;;;;;17.28;87.43;100616.09;5000091;28;20052;-84
2021/07/24 03:12:50;;;;;;;46.30;21.92;;;;;;;17.21;87.19;100604.47;5011549;28;20040;-82
2021/07/24 03:15:16;;;;;;;54.13;24.65;;;;;;;17.22;87.21;100603.41;4996071;28;20025;-82
2021/07/24 03:17:41;;;;;;;46.20;22.88;;;;;;;17.22;87.34;100595.25;5007916;28;20656;-84
2021/07/24 03:20:07;;;;;;;47.90;23.70;;;;;;;17.16;87.29;100587.16;5016928;28;20021;-84
2021/07/24 03:22:33;;;;;;;49.08;22.27;;;;;;;17.20;87.30;100602.81;5009474;28;20033;-82
2021/07/24 03:25:00;;;;;;;44.83;20.90;;;;;;;17.16;87.75;100611.63;5003307;28;20048;-84
2021/07/24 03:27:25;;;;;;;46.45;22.20;;;;;;;17.09;87.68;100617.09;4996551;28;20129;-84
2021/07/24 03:29:51;;;;;;;48.90;22.10;;;;;;;16.83;87.71;100571.97;5010937;28;20109;-82
2021/07/24 03:32:16;;;;;;;48.25;24.02;;;;;;;17.05;87.55;100622.16;5002216;28;20112;-84
2021/07/24 03:34:42;;;;;;;49.35;22.10;;;;;;;16.96;87.62;100599.03;5013317;28;20297;-84
2021/07/24 03:37:07;;;;;;;56.70;23.27;;;;;;;16.91;87.60;100588.03;5008189;28;20064;-82
2021/07/24 03:39:32;;;;;;;45.22;22.10;;;;;;;16.91;87.70;100596.16;5011610;28;20022;-83
2021/07/24 03:41:58;;;;;;;50.25;21.80;;;;;;;16.99;87.96;100614.91;5011331;28;20026;-84
2021/07/24 03:44:23;;;;;;;47.90;21.33;;;;;;;17.02;87.77;100621.78;4996220;28;20025;-83
2021/07/24 03:46:49;;;;;;;47.13;22.65;;;;;;;16.98;88.01;100610.50;5010305;28;20097;-84
2021/07/24 03:49:14;;;;;;;44.55;22.27;;;;;;;16.88;88.03;100594.72;4999670;28;20030;-84
2021/07/24 03:51:39;;;;;;;46.25;22.92;;;;;;;16.81;87.91;100588.50;5000788;28;20036;-83
2021/07/24 03:54:05;;;;;;;49.28;22.30;;;;;;;16.93;88.06;100607.63;4992330;28;20022;-84
2021/07/24 03:56:30;;;;;;;44.03;22.98;;;;;;;16.86;88.15;100591.41;5024394;28;20336;-83
2021/07/24 03:58:56;;;;;;;49.22;21.85;;;;;;;16.83;87.97;100597.28;5012156;28;20030;-83
2021/07/24 04:01:22;;;;;;;41.08;21.25;;;;;;;16.82;88.19;100595.59;5010459;28;20034;-81
2021/07/24 04:03:48;;;;;;;42.17;20.75;;;;;;;16.83;88.29;100602.69;4993739;28;20021;-84
2021/07/24 04:06:20;;;;;;;46.33;22.13;;;;;;;16.61;88.00;100575.03;5008148;28;20029;-84
2021/07/24 04:08:45;;;;;;;44.17;21.25;;;;;;;16.70;88.18;100591.91;5011280;28;20076;-84
2021/07/24 04:11:11;;;;;;;52.00;22.88;;;;;;;16.70;88.12;100592.75;5013238;28;20021;-83
2021/07/24 04:13:37;;;;;;;47.15;22.08;;;;;;;16.69;88.01;100590.22;5011324;28;20399;-84
2021/07/24 04:16:02;;;;;;;43.60;20.48;;;;;;;16.60;87.75;100583.41;4994863;28;20022;-83
2021/07/24 04:18:31;;;;;;;47.60;21.35;;;;;;;16.56;88.11;100588.44;5011444;28;20439;-84
2021/07/24 04:20:58;;;;;;;41.50;20.55;;;;;;;16.54;87.89;100589.72;4994857;28;20034;-83
2021/07/24 04:23:24;;;;;;;40.95;19.58;;;;;;;16.55;87.72;100591.38;4990972;28;20065;-83
2021/07/24 04:25:49;;;;;;;42.92;19.35;;;;;;;16.47;87.39;100587.06;5007684;28;20038;-83
2021/07/24 04:28:15;;;;;;;38.10;19.65;;;;;;;16.40;87.87;100594.41;5005834;28;20032;-83
2021/07/24 04:30:40;;;;;;;45.92;20.65;;;;;;;16.36;87.69;100593.19;4994007;28;20026;-82
2021/07/24 04:33:06;;;;;;;44.28;20.60;;;;;;;16.29;87.92;100586.97;5010778;28;20025;-83
2021/07/24 04:35:31;;;;;;;45.13;20.95;;;;;;;16.29;88.18;100574.22;5007666;28;20022;-84
2021/07/24 04:37:56;;;;;;;48.50;22.08;;;;;;;16.29;88.26;100579.66;5012891;28;20112;-82
2021/07/24 04:40:22;;;;;;;43.85;20.17;;;;;;;16.25;88.05;100578.44;5014727;28;20026;-84
2021/07/24 04:42:48;;;;;;;44.17;19.95;;;;;;;16.10;88.54;100576.00;4998310;28;20088;-83
2021/07/24 04:45:13;;;;;;;43.00;20.90;;;;;;;16.21;88.51;100588.88;4998059;28;20138;-83
2021/07/24 04:47:39;;;;;;;39.35;19.17;;;;;;;16.26;88.29;100594.47;5014062;28;20036;-83
2021/07/24 04:50:05;;;;;;;44.90;20.08;;;;;;;16.29;87.83;100587.78;5024434;28;20488;-82
2021/07/24 04:52:30;;;;;;;41.78;21.52;;;;;;;16.29;87.87;100589.66;5012439;28;20033;-84
2021/07/24 04:54:56;;;;;;;42.28;19.98;;;;;;;16.29;88.02;100586.97;5012802;28;20037;-83
2021/07/24 04:57:22;;;;;;;37.63;18.95;;;;;;;16.20;88.25;100581.78;5016225;28;20420;-83
2021/07/24 04:59:48;;;;;;;44.65;20.95;;;;;;;16.21;87.67;100588.03;5008865;28;20029;-83
2021/07/24 05:02:15;;;;;;;43.88;19.58;;;;;;;16.18;88.08;100586.59;5002573;28;20025;-81
2021/07/24 05:04:40;;;;;;;48.05;20.77;;;;;;;16.18;88.31;100585.75;5013659;28;20025;-83
2021/07/24 05:07:06;;;;;;;49.45;26.23;;;;;;;16.20;88.51;100586.38;5015680;28;20026;-84
2021/07/24 05:09:31;;;;;;;49.08;25.05;;;;;;;16.26;88.24;100597.19;5012600;28;20030;-83
2021/07/24 05:11:57;;;;;;;53.17;23.98;;;;;;;16.35;88.16;100594.22;4998036;28;20030;-84
2021/07/24 05:14:22;;;;;;;51.10;23.60;;;;;;;16.20;88.12;100570.13;5011326;28;20026;-84
2021/07/24 05:16:47;;;;;;;46.13;22.60;;;;;;;16.41;87.76;100609.66;5003492;28;20028;-84
2021/07/24 05:19:13;;;;;;;48.63;23.92;;;;;;;16.43;87.94;100623.81;5003922;28;20492;-84
2021/07/24 05:21:38;;;;;;;50.63;23.67;;;;;;;16.39;88.16;100617.16;5014149;28;20026;-84
2021/07/24 05:24:04;;;;;;;48.72;22.35;;;;;;;16.39;88.19;100623.41;4998491;28;20116;-83
2021/07/24 05:26:29;;;;;;;48.58;24.00;;;;;;;16.39;88.31;100628.84;4996159;28;20498;-83
2021/07/24 05:28:55;;;;;;;54.33;23.50;;;;;;;16.39;88.26;100634.28;4997982;28;20030;-83
2021/07/24 05:31:21;;;;;;;47.20;22.02;;;;;;;16.45;88.40;100638.81;5007271;28;20030;-83
2021/07/24 05:33:47;;;;;;;51.47;23.02;;;;;;;16.48;88.19;100634.84;5011366;28;20026;-84
2021/07/24 05:36:12;;;;;;;47.38;22.27;;;;;;;16.54;87.45;100631.28;5000288;28;20523;-84
2021/07/24 05:38:38;;;;;;;45.92;22.45;;;;;;;16.69;87.40;100639.09;5015806;28;20022;-84
2021/07/24 05:41:04;;;;;;;40.75;20.80;;;;;;;16.74;87.53;100638.44;5036454;28;20097;-84
2021/07/24 05:43:29;;;;;;;46.75;20.65;;;;;;;16.74;87.38;100635.72;5011845;28;20030;-84
2021/07/24 05:45:55;;;;;;;43.97;21.50;;;;;;;16.74;87.66;100638.44;5024181;28;20045;-84
2021/07/24 05:48:20;;;;;;;42.53;20.02;;;;;;;16.68;87.85;100630.13;5006089;28;20041;-84
2021/07/24 05:50:46;;;;;;;43.65;22.05;;;;;;;16.71;87.81;100623.44;5011302;28;20544;-84
2021/07/24 05:53:11;;;;;;;46.05;19.98;;;;;;;16.88;87.50;100643.59;5018439;28;20088;-84
2021/07/24 05:55:38;;;;;;;44.88;20.33;;;;;;;16.83;87.01;100643.44;5012958;28;20029;-83
2021/07/24 05:58:06;;;;;;;47.25;21.38;;;;;;;16.88;87.25;100640.91;5014799;28;20511;-84
2021/07/24 06:00:31;;;;;;;48.05;22.40;;;;;;;16.81;87.22;100629.25;4999167;28;20026;-84
2021/07/24 06:02:57;;;;;;;45.88;20.80;;;;;;;16.82;87.22;100632.78;5009710;28;20052;-83
2021/07/24 06:05:22;;;;;;;47.63;22.73;;;;;;;16.81;87.72;100628.41;4997904;28;20508;-84
2021/07/24 06:07:48;;;;;;;47.97;21.80;;;;;;;16.80;87.51;100613.97;4998521;28;20536;-84
2021/07/24 06:10:13;;;;;;;48.15;21.70;;;;;;;16.84;87.87;100620.66;5020085;28;20032;-85
2021/07/24 06:12:39;;;;;;;59.28;24.48;;;;;;;16.82;87.67;100617.31;4999846;28;20030;-84
2021/07/24 06:15:05;;;;;;;53.97;22.15;;;;;;;16.95;87.86;100627.25;5002560;28;20022;-84
2021/07/24 06:17:30;;;;;;;51.47;23.65;;;;;;;16.95;87.50;100623.72;5027358;28;20030;-83
2021/07/24 06:19:55;;;;;;;53.90;24.05;;;;;;;16.99;87.37;100614.91;5014124;28;20045;-85
2021/07/24 06:22:21;;;;;;;55.03;22.05;;;;;;;17.12;87.20;100624.81;5023868;28;20030;-83
2021/07/24 06:24:46;;;;;;;53.45;21.73;;;;;;;17.16;87.19;100623.31;5015358;28;20396;-84
2021/07/24 06:27:12;;;;;;;46.83;23.58;;;;;;;17.19;86.98;100614.72;5019065;28;20029;-83
2021/07/24 06:29:37;;;;;;;51.05;21.95;;;;;;;17.32;86.85;100624.63;5003704;28;20089;-84
2021/07/24 06:32:03;;;;;;;47.50;21.23;;;;;;;17.42;86.81;100619.53;5004013;28;20025;-82
2021/07/24 06:34:29;;;;;;;48.70;20.38;;;;;;;17.49;86.42;100616.72;5014630;28;20520;-84
2021/07/24 06:36:54;;;;;;;50.40;22.45;;;;;;;17.62;86.42;100607.59;4998881;28;20017;-84
2021/07/24 06:39:21;;;;;;;49.95;21.90;;;;;;;17.72;85.89;100610.63;4993535;28;20014;-85
2021/07/24 06:41:47;;;;;;;50.28;21.98;;;;;;;17.78;85.94;100596.97;5021337;28;20071;-84
2021/07/24 06:44:12;;;;;;;48.80;22.77;;;;;;;17.91;85.75;100619.63;5013739;28;20494;-80
2021/07/24 06:46:37;;;;;;;57.90;24.02;;;;;;;18.04;85.39;100613.22;5009354;28;20504;-80
2021/07/24 06:49:03;;;;;;;59.55;24.27;;;;;;;18.10;84.83;100591.38;5010297;28;20026;-80
2021/07/24 06:51:28;;;;;;;48.28;23.38;;;;;;;18.15;84.66;100605.13;5011545;28;20029;-80
2021/07/24 06:53:54;;;;;;;53.05;22.55;;;;;;;18.26;84.48;100605.38;5013079;28;20022;-80
2021/07/24 06:56:19;;;;;;;53.97;23.63;;;;;;;18.36;84.13;100606.47;5009907;28;20587;-80
2021/07/24 06:58:44;;;;;;;49.67;22.70;;;;;;;18.44;83.68;100614.34;5007461;28;20029;-79
2021/07/24 07:01:10;;;;;;;51.30;23.50;;;;;;;18.58;83.16;100625.88;5005474;28;20030;-79
2021/07/24 07:03:35;;;;;;;52.60;23.60;;;;;;;18.61;82.65;100633.56;5010538;28;20112;-79
2021/07/24 07:06:04;;;;;;;49.92;22.27;;;;;;;18.67;82.40;100629.09;5011552;28;20022;-77
2021/07/24 07:08:30;;;;;;;52.92;23.10;;;;;;;18.71;82.35;100622.13;5012153;28;20030;-79
2021/07/24 07:11:03;;;;;;;49.00;23.55;;;;;;;18.76;82.29;100630.47;5008905;28;20099;-79
2021/07/24 07:13:28;;;;;;;50.72;22.23;;;;;;;18.85;82.03;100628.22;4995003;28;20026;-80
2021/07/24 07:15:54;;;;;;;49.85;22.40;;;;;;;18.83;82.08;100628.44;5010884;28;20361;-79
2021/07/24 07:18:20;;;;;;;47.50;22.63;;;;;;;18.93;81.74;100637.94;5007301;28;20030;-79
2021/07/24 07:20:49;;;;;;;54.47;23.90;;;;;;;19.01;81.14;100629.44;5007753;28;20108;-80
2021/07/24 07:23:14;;;;;;;44.65;22.90;;;;;;;19.08;80.97;100633.72;5011454;28;20053;-80
2021/07/24 07:25:40;;;;;;;46.95;22.08;;;;;;;19.17;80.82;100626.00;5004361;28;20498;-80
2021/07/24 07:28:05;;;;;;;48.25;21.20;;;;;;;19.16;80.14;100632.53;5009142;28;20875;-78
2021/07/24 07:30:30;;;;;;;48.78;21.60;;;;;;;19.22;80.17;100620.69;5020141;28;20018;-80
2021/07/24 07:32:56;;;;;;;43.05;21.27;;;;;;;19.33;79.71;100627.22;5020641;28;20809;-80
2021/07/24 07:35:21;;;;;;;39.88;20.42;;;;;;;19.41;78.97;100634.19;5008561;28;20133;-80
2021/07/24 07:37:49;;;;;;;36.90;19.15;;;;;;;19.52;77.87;100626.00;5010298;28;20093;-80
2021/07/24 07:40:14;;;;;;;39.58;18.65;;;;;;;19.60;76.70;100637.63;5000233;28;20025;-79
2021/07/24 07:42:40;;;;;;;42.95;20.80;;;;;;;19.56;76.06;100631.84;5004900;28;20026;-79
2021/07/24 07:45:05;;;;;;;41.85;19.75;;;;;;;19.52;76.22;100634.19;5008571;28;20032;-79
2021/07/24 07:47:31;;;;;;;39.35;17.88;;;;;;;19.61;75.65;100639.28;5011059;28;20018;-80
2021/07/24 07:49:56;;;;;;;34.70;18.40;;;;;;;19.54;75.11;100642.97;5007512;28;20157;-79
2021/07/24 07:52:22;;;;;;;35.03;17.05;;;;;;;19.45;74.46;100629.91;5005690;28;20588;-80
2021/07/24 07:54:48;;;;;;;36.08;18.83;;;;;;;19.51;74.52;100634.44;5021401;28;20113;-79
2021/07/24 07:57:14;;;;;;;30.30;16.98;;;;;;;19.61;74.17;100629.22;5019623;28;20380;-81
2021/07/24 07:59:39;;;;;;;36.60;18.98;;;;;;;19.74;73.60;100639.06;5006538;28;20465;-79
2021/07/24 08:02:04;;;;;;;31.27;15.52;;;;;;;19.81;73.67;100633.47;5007192;28;20013;-78
2021/07/24 08:04:30;;;;;;;29.85;15.20;;;;;;;19.75;73.03;100616.19;5011402;28;20026;-79
2021/07/24 08:06:55;;;;;;;30.85;16.55;;;;;;;19.87;73.07;100627.91;5011186;28;20499;-80
2021/07/24 08:09:21;;;;;;;28.40;15.30;;;;;;;19.85;72.84;100615.56;5009366;28;20029;-79
2021/07/24 08:11:47;;;;;;;30.35;15.65;;;;;;;19.88;72.50;100606.91;5008690;28;20444;-80
2021/07/24 08:14:13;;;;;;;33.42;16.67;;;;;;;19.96;72.08;100614.72;5012189;28;20100;-79
2021/07/24 08:16:38;;;;;;;28.00;14.80;;;;;;;19.99;72.23;100614.22;5012105;28;20481;-80
2021/07/24 08:19:03;;;;;;;26.30;13.55;;;;;;;20.05;72.13;100613.25;5007436;28;20026;-80
2021/07/24 08:21:29;;;;;;;27.35;13.25;;;;;;;20.18;71.52;100606.69;5012826;28;20021;-80
2021/07/24 08:23:54;;;;;;;24.67;13.50;;;;;;;20.37;71.27;100619.06;5014811;28;20468;-81
2021/07/24 08:26:20;;;;;;;28.42;14.38;;;;;;;20.24;70.77;100591.22;5020767;28;20052;-79
2021/07/24 08:28:45;;;;;;;21.92;12.90;;;;;;;20.53;70.46;100616.63;5011049;28;20029;-79
2021/07/24 08:31:15;;;;;;;20.05;11.75;;;;;;;20.62;69.97;100616.00;5013647;28;20014;-81
2021/07/24 08:33:41;;;;;;;26.27;11.93;;;;;;;20.72;69.10;100607.19;5007419;28;20108;-82
2021/07/24 08:36:07;;;;;;;21.10;12.40;;;;;;;20.77;68.66;100620.06;5013646;28;20143;-81
2021/07/24 08:38:32;;;;;;;19.67;10.73;;;;;;;20.73;68.31;100608.00;5013011;28;20433;-81
2021/07/24 08:40:58;;;;;;;22.83;12.07;;;;;;;20.79;68.04;100607.00;5013384;28;20804;-82
2021/07/24 08:43:23;;;;;;;16.55;10.52;;;;;;;20.91;67.71;100605.03;5011964;28;20165;-81
2021/07/24 08:45:49;;;;;;;20.90;11.10;;;;;;;20.94;67.75;100592.78;4996617;28;20030;-81
2021/07/24 08:48:14;;;;;;;21.25;10.57;;;;;;;20.98;67.05;100597.47;5011167;28;20022;-81
2021/07/24 08:50:43;;;;;;;21.55;12.80;;;;;;;20.95;67.05;100591.69;5011944;28;20044;-81
2021/07/24 08:53:09;;;;;;;25.27;12.10;;;;;;;21.05;66.84;100594.59;5012276;28;20026;-82
2021/07/24 08:55:38;;;;;;;25.70;12.10;;;;;;;21.10;66.41;100585.66;4996200;28;20028;-81
2021/07/24 08:58:09;;;;;;;19.52;11.32;;;;;;;21.23;66.84;100590.78;4996059;28;20065;-81
2021/07/24 09:00:35;;;;;;;20.73;11.27;;;;;;;21.33;66.78;100579.97;4996297;28;20024;-81
2021/07/24 09:03:01;;;;;;;30.38;14.05;;;;;;;21.39;66.38;100581.72;5011011;28;20038;-81
2021/07/24 09:05:30;;;;;;;21.92;11.35;;;;;;;21.49;66.12;100578.31;5011815;28;20026;-81
2021/07/24 09:07:57;;;;;;;24.02;12.13;;;;;;;21.57;66.35;100579.78;4995330;28;20026;-82
2021/07/24 09:10:23;;;;;;;23.23;12.82;;;;;;;21.80;65.99;100585.00;5028256;28;20021;-82
2021/07/24 09:12:49;;;;;;;25.95;12.30;;;;;;;21.77;65.33;100574.56;4994898;28;20025;-81
2021/07/24 09:15:17;;;;;;;22.40;12.18;;;;;;;21.84;65.27;100567.00;5011874;28;20026;-82
2021/07/24 09:17:43;;;;;;;23.77;13.07;;;;;;;22.05;65.09;100575.47;5011768;28;20655;-81
2021/07/24 09:20:09;;;;;;;22.55;13.02;;;;;;;22.18;64.96;100569.56;5011907;28;20022;-81
2021/07/24 09:22:36;;;;;;;25.58;14.45;;;;;;;22.23;64.57;100583.34;5010387;28;20052;-81
2021/07/24 09:25:10;;;;;;;26.25;13.73;;;;;;;22.36;65.36;100580.22;4995159;28;20041;-81
2021/07/24 09:27:36;;;;;;;24.83;12.65;;;;;;;22.63;64.76;100573.88;5011319;28;20067;-81
2021/07/24 09:30:06;;;;;;;22.90;12.02;;;;;;;22.65;62.95;100568.13;4994941;28;20030;-82
2021/07/24 09:32:32;;;;;;;20.73;11.32;;;;;;;22.53;63.75;100566.38;5010426;28;20041;-81
2021/07/24 09:34:57;;;;;;;26.50;12.77;;;;;;;22.32;64.26;100565.38;5012740;28;20030;-82
2021/07/24 09:37:30;;;;;;;23.27;12.68;;;;;;;22.69;64.84;100567.34;5012893;28;20022;-81
2021/07/24 09:40:24;;;;;;;20.88;10.88;;;;;;;22.87;63.76;100557.91;4994798;28;20498;-82
2021/07/24 09:42:49;;;;;;;18.10;11.45;;;;;;;23.06;63.05;100558.34;5010069;28;20488;-81
2021/07/24 09:45:15;;;;;;;24.52;12.30;;;;;;;23.16;62.65;100555.69;5010447;28;20037;-81
2021/07/24 09:47:40;;;;;;;25.13;12.48;;;;;;;23.33;61.46;100557.41;5010916;28;20021;-82
2021/07/24 09:50:14;;;;;;;22.05;11.65;;;;;;;23.39;61.04;100554.44;4998193;28;20120;-81
2021/07/24 09:52:50;;;;;;;20.52;10.75;;;;;;;23.53;61.62;100557.53;4993852;28;20057;-82
2021/07/24 09:55:23;;;;;;;26.63;12.63;;;;;;;23.67;60.89;100550.44;4993705;28;20030;-81
2021/07/24 09:57:50;;;;;;;19.35;11.73;;;;;;;23.75;61.07;100542.84;5010869;28;20050;-82
2021/07/24 10:00:23;;;;;;;17.80;10.98;;;;;;;23.98;61.29;100547.03;5009333;28;20030;-82
2021/07/24 10:03:03;;;;;;;22.67;11.80;;;;;;;24.12;60.21;100548.16;5005387;28;20025;-81
2021/07/24 10:05:41;;;;;;;22.52;11.05;;;;;;;24.26;60.02;100554.78;4993535;28;20033;-81
2021/07/24 10:08:14;;;;;;;17.48;10.15;;;;;;;24.26;59.44;100553.94;5010773;28;20496;-82
2021/07/24 10:10:42;;;;;;;23.33;12.18;;;;;;;24.37;58.87;100547.38;5011286;28;20075;-81
2021/07/24 10:13:12;;;;;;;24.10;12.10;;;;;;;24.64;58.37;100560.09;5010481;28;20097;-82
2021/07/24 10:15:40;;;;;;;21.08;10.32;;;;;;;24.76;56.68;100553.19;4997857;28;20022;-82
2021/07/24 10:18:07;;;;;;;20.42;12.35;;;;;;;24.53;57.68;100540.84;5003295;28;20120;-82
2021/07/24 10:20:41;;;;;;;22.02;10.35;;;;;;;24.52;58.26;100561.16;5000131;28;20114;-81
2021/07/24 10:23:08;;;;;;;17.15;9.77;;;;;;;24.29;57.94;100553.41;5009920;28;20480;-82
2021/07/24 10:25:39;;;;;;;17.23;10.73;;;;;;;24.12;58.09;100565.47;5009455;28;20030;-82
2021/07/24 10:28:06;;;;;;;21.27;9.93;;;;;;;24.16;56.25;100551.19;5008910;28;20030;-82
2021/07/24 10:30:33;;;;;;;22.05;9.98;;;;;;;24.37;56.45;100552.84;5008979;28;20108;-81
2021/07/24 10:32:59;;;;;;;16.23;9.90;;;;;;;24.46;56.95;100551.28;5009521;28;20120;-80
2021/07/24 10:35:41;;;;;;;14.88;8.32;;;;;;;24.71;55.85;100552.38;5010943;28;20488;-79
2021/07/24 10:38:30;;;;;;;22.98;10.13;;;;;;;24.89;55.41;100553.75;4998215;28;20030;-78
2021/07/24 10:41:24;;;;;;;17.98;10.55;;;;;;;25.08;55.92;100554.81;5010675;28;20376;-78
2021/07/24 10:44:06;;;;;;;19.10;10.60;;;;;;;25.22;55.31;100544.09;5013692;28;20029;-79
2021/07/24 10:46:40;;;;;;;20.77;10.35;;;;;;;25.42;54.81;100548.72;5017071;28;20038;-79
2021/07/24 10:49:26;;;;;;;18.40;9.40;;;;;;;25.50;53.43;100542.63;5014592;28;20294;-80
2021/07/24 10:51:58;;;;;;;16.92;10.13;;;;;;;25.52;53.76;100545.13;5022629;28;20033;-79
2021/07/24 10:54:25;;;;;;;16.30;9.65;;;;;;;25.47;53.23;100542.38;5002966;28;20104;-78
2021/07/24 10:56:50;;;;;;;15.73;9.60;;;;;;;25.44;52.43;100543.75;4992867;28;20045;-80
2021/07/24 10:59:27;;;;;;;17.10;10.95;;;;;;;25.52;53.35;100531.34;5009069;28;20026;-78
2021/07/24 11:01:56;;;;;;;18.77;10.15;;;;;;;25.60;52.95;100539.03;4991747;28;20022;-81
2021/07/24 11:04:37;;;;;;;16.58;9.77;;;;;;;25.46;53.26;100536.06;5009028;28;20037;-79
2021/07/24 11:07:21;;;;;;;15.45;10.00;;;;;;;25.69;52.60;100539.25;5007402;28;20092;-79
2021/07/24 11:10:03;;;;;;;16.00;9.02;;;;;;;25.67;52.48;100529.38;5009417;28;20065;-77
2021/07/24 11:12:40;;;;;;;19.25;9.68;;;;;;;25.82;52.21;100533.13;5021316;28;20065;-79
2021/07/24 11:15:10;;;;;;;14.75;8.48;;;;;;;25.91;51.18;100538.91;5008430;28;20026;-78